sensor_id;sensor_type;location;lat;lon;timestamp;temperature;humidity
30244;DHT22;61465;53.652;9.792;2022-07-06T00:01:30;15.70;61.80
30244;DHT22;61465;53.652;9.792;2022-07-06T00:03:56;15.70;62.00
30244;DHT22;61465;53.652;9.792;2022-07-06T00:06:22;15.70;62.00
30244;DHT22;61465;53.652;9.792;2022-07-06T00:08:48;15.70;62.10
30244;DHT22;61465;53.652;9.792;2022-07-06T00:11:13;15.70;62.30
30244;DHT22;61465;53.652;9.792;2022-07-06T00:13:39;15.70;62.30
30244;DHT22;61465;53.652;9.792;2022-07-06T00:16:05;15.60;62.40
30244;DHT22;61465;53.652;9.792;2022-07-06T00:18:36;15.60;62.70
30244;DHT22;61465;53.652;9.792;2022-07-06T00:21:02;15.70;62.80
30244;DHT22;61465;53.652;9.792;2022-07-06T00:23:28;15.60;62.80
30244;DHT22;61465;53.652;9.792;2022-07-06T00:25:54;15.60;62.90
30244;DHT22;61465;53.652;9.792;2022-07-06T00:28:20;15.60;62.90
30244;DHT22;61465;53.652;9.792;2022-07-06T00:30:45;15.60;62.90
30244;DHT22;61465;53.652;9.792;2022-07-06T00:33:11;15.60;63.10
30244;DHT22;61465;53.652;9.792;2022-07-06T00:35:36;15.60;63.10
30244;DHT22;61465;53.652;9.792;2022-07-06T00:38:02;15.60;63.10
30244;DHT22;61465;53.652;9.792;2022-07-06T00:40:28;15.60;63.20
30244;DHT22;61465;53.652;9.792;2022-07-06T00:42:55;15.60;63.30
30244;DHT22;61465;53.652;9.792;2022-07-06T00:45:21;15.60;63.30
30244;DHT22;61465;53.652;9.792;2022-07-06T00:47:46;15.60;63.40
30244;DHT22;61465;53.652;9.792;2022-07-06T00:50:14;15.60;63.40
30244;DHT22;61465;53.652;9.792;2022-07-06T00:52:41;15.60;63.50
30244;DHT22;61465;53.652;9.792;2022-07-06T00:55:08;15.50;63.60
30244;DHT22;61465;53.652;9.792;2022-07-06T00:57:35;15.50;63.70
30244;DHT22;61465;53.652;9.792;2022-07-06T01:00:06;15.60;63.80
30244;DHT22;61465;53.652;9.792;2022-07-06T01:02:33;15.50;63.70
30244;DHT22;61465;53.652;9.792;2022-07-06T01:04:59;15.50;63.90
30244;DHT22;61465;53.652;9.792;2022-07-06T01:07:25;15.50;64.00
30244;DHT22;61465;53.652;9.792;2022-07-06T01:09:52;15.50;64.00
30244;DHT22;61465;53.652;9.792;2022-07-06T01:12:18;15.50;64.00
30244;DHT22;61465;53.652;9.792;2022-07-06T01:14:44;15.50;64.10
30244;DHT22;61465;53.652;9.792;2022-07-06T01:17:10;15.40;64.20
30244;DHT22;61465;53.652;9.792;2022-07-06T01:19:36;15.40;64.30
30244;DHT22;61465;53.652;9.792;2022-07-06T01:22:02;15.40;64.50
30244;DHT22;61465;53.652;9.792;2022-07-06T01:24:27;15.40;64.50
30244;DHT22;61465;53.652;9.792;2022-07-06T01:26:53;15.40;64.60
30244;DHT22;61465;53.652;9.792;2022-07-06T01:29:19;15.40;64.70
30244;DHT22;61465;53.652;9.792;2022-07-06T01:31:49;15.40;64.80
30244;DHT22;61465;53.652;9.792;2022-07-06T01:34:16;15.40;64.80
30244;DHT22;61465;53.652;9.792;2022-07-06T01:36:43;15.40;65.10
30244;DHT22;61465;53.652;9.792;2022-07-06T01:39:09;15.40;65.20
30244;DHT22;61465;53.652;9.792;2022-07-06T01:41:35;15.40;65.30
30244;DHT22;61465;53.652;9.792;2022-07-06T01:44:02;15.40;65.30
30244;DHT22;61465;53.652;9.792;2022-07-06T01:46:29;15.40;65.50
30244;DHT22;61465;53.652;9.792;2022-07-06T01:48:55;15.40;65.60
30244;DHT22;61465;53.652;9.792;2022-07-06T01:51:21;15.40;65.60
30244;DHT22;61465;53.652;9.792;2022-07-06T01:53:48;15.40;65.70
30244;DHT22;61465;53.652;9.792;2022-07-06T01:56:13;15.40;65.90
30244;DHT22;61465;53.652;9.792;2022-07-06T01:58:39;15.40;63.40
30244;DHT22;61465;53.652;9.792;2022-07-06T02:01:14;15.40;65.90
30244;DHT22;61465;53.652;9.792;2022-07-06T02:03:40;15.40;65.70
30244;DHT22;61465;53.652;9.792;2022-07-06T02:06:06;15.40;66.30
30244;DHT22;61465;53.652;9.792;2022-07-06T02:08:33;15.40;66.10
30244;DHT22;61465;53.652;9.792;2022-07-06T02:10:59;15.40;66.20
30244;DHT22;61465;53.652;9.792;2022-07-06T02:13:25;15.40;66.30
30244;DHT22;61465;53.652;9.792;2022-07-06T02:15:50;15.40;66.30
30244;DHT22;61465;53.652;9.792;2022-07-06T02:18:16;15.40;66.50
30244;DHT22;61465;53.652;9.792;2022-07-06T02:20:41;15.40;66.50
30244;DHT22;61465;53.652;9.792;2022-07-06T02:23:07;15.40;66.60
30244;DHT22;61465;53.652;9.792;2022-07-06T02:25:33;15.40;66.60
30244;DHT22;61465;53.652;9.792;2022-07-06T02:27:59;15.40;66.50
30244;DHT22;61465;53.652;9.792;2022-07-06T02:30:25;15.40;66.40
30244;DHT22;61465;53.652;9.792;2022-07-06T02:32:50;15.40;66.60
30244;DHT22;61465;53.652;9.792;2022-07-06T02:35:16;15.30;66.50
30244;DHT22;61465;53.652;9.792;2022-07-06T02:37:41;15.40;66.80
30244;DHT22;61465;53.652;9.792;2022-07-06T02:40:07;15.30;66.80
30244;DHT22;61465;53.652;9.792;2022-07-06T02:42:33;15.30;67.00
30244;DHT22;61465;53.652;9.792;2022-07-06T02:44:59;15.30;67.10
30244;DHT22;61465;53.652;9.792;2022-07-06T02:47:24;15.30;67.10
30244;DHT22;61465;53.652;9.792;2022-07-06T02:49:51;15.30;67.20
30244;DHT22;61465;53.652;9.792;2022-07-06T02:52:18;15.30;67.40
30244;DHT22;61465;53.652;9.792;2022-07-06T02:54:44;15.30;67.50
30244;DHT22;61465;53.652;9.792;2022-07-06T02:57:09;15.30;67.60
30244;DHT22;61465;53.652;9.792;2022-07-06T02:59:35;15.30;67.60
30244;DHT22;61465;53.652;9.792;2022-07-06T03:02:02;15.30;67.90
30244;DHT22;61465;53.652;9.792;2022-07-06T03:04:28;15.30;65.40
30244;DHT22;61465;53.652;9.792;2022-07-06T03:06:53;15.20;67.90
30244;DHT22;61465;53.652;9.792;2022-07-06T03:09:19;15.30;68.10
30244;DHT22;61465;53.652;9.792;2022-07-06T03:11:45;15.30;68.20
30244;DHT22;61465;53.652;9.792;2022-07-06T03:14:10;15.30;68.20
30244;DHT22;61465;53.652;9.792;2022-07-06T03:16:36;15.20;68.30
30244;DHT22;61465;53.652;9.792;2022-07-06T03:19:02;15.30;68.40
30244;DHT22;61465;53.652;9.792;2022-07-06T03:21:28;15.30;68.50
30244;DHT22;61465;53.652;9.792;2022-07-06T03:23:53;15.20;69.10
30244;DHT22;61465;53.652;9.792;2022-07-06T03:26:19;15.30;68.60
30244;DHT22;61465;53.652;9.792;2022-07-06T03:28:44;15.20;68.70
30244;DHT22;61465;53.652;9.792;2022-07-06T03:31:10;15.20;68.90
30244;DHT22;61465;53.652;9.792;2022-07-06T03:33:36;15.20;68.80
30244;DHT22;61465;53.652;9.792;2022-07-06T03:36:01;15.20;68.90
30244;DHT22;61465;53.652;9.792;2022-07-06T03:38:27;15.30;69.10
30244;DHT22;61465;53.652;9.792;2022-07-06T03:40:53;15.30;69.20
30244;DHT22;61465;53.652;9.792;2022-07-06T03:43:18;15.20;69.20
30244;DHT22;61465;53.652;9.792;2022-07-06T03:45:44;15.30;69.40
30244;DHT22;61465;53.652;9.792;2022-07-06T03:48:10;15.30;69.50
30244;DHT22;61465;53.652;9.792;2022-07-06T03:50:35;15.30;69.50
30244;DHT22;61465;53.652;9.792;2022-07-06T03:53:01;15.30;69.70
30244;DHT22;61465;53.652;9.792;2022-07-06T03:55:27;15.30;69.70
30244;DHT22;61465;53.652;9.792;2022-07-06T03:57:52;15.30;69.70
30244;DHT22;61465;53.652;9.792;2022-07-06T04:00:18;15.30;69.80
30244;DHT22;61465;53.652;9.792;2022-07-06T04:02:44;15.30;69.90
30244;DHT22;61465;53.652;9.792;2022-07-06T04:05:09;15.30;70.00
30244;DHT22;61465;53.652;9.792;2022-07-06T04:07:35;15.30;69.90
30244;DHT22;61465;53.652;9.792;2022-07-06T04:10:00;15.30;69.90
30244;DHT22;61465;53.652;9.792;2022-07-06T04:12:26;15.30;69.90
30244;DHT22;61465;53.652;9.792;2022-07-06T04:14:52;15.30;69.90
30244;DHT22;61465;53.652;9.792;2022-07-06T04:17:18;15.40;70.10
30244;DHT22;61465;53.652;9.792;2022-07-06T04:20:02;15.40;70.20
30244;DHT22;61465;53.652;9.792;2022-07-06T04:22:27;15.40;70.40
30244;DHT22;61465;53.652;9.792;2022-07-06T04:24:53;15.40;70.40
30244;DHT22;61465;53.652;9.792;2022-07-06T04:27:19;15.40;70.50
30244;DHT22;61465;53.652;9.792;2022-07-06T04:29:44;15.40;70.70
30244;DHT22;61465;53.652;9.792;2022-07-06T04:32:10;15.50;70.80
30244;DHT22;61465;53.652;9.792;2022-07-06T04:34:35;15.50;70.80
30244;DHT22;61465;53.652;9.792;2022-07-06T04:37:01;15.50;70.80
30244;DHT22;61465;53.652;9.792;2022-07-06T04:39:26;15.60;70.90
30244;DHT22;61465;53.652;9.792;2022-07-06T04:41:52;15.60;71.00
30244;DHT22;61465;53.652;9.792;2022-07-06T04:44:18;15.60;71.10
30244;DHT22;61465;53.652;9.792;2022-07-06T04:46:44;15.60;71.20
30244;DHT22;61465;53.652;9.792;2022-07-06T04:49:09;15.60;71.30
30244;DHT22;61465;53.652;9.792;2022-07-06T04:51:35;15.70;71.40
30244;DHT22;61465;53.652;9.792;2022-07-06T04:54:01;15.70;71.50
30244;DHT22;61465;53.652;9.792;2022-07-06T04:56:26;15.70;72.00
30244;DHT22;61465;53.652;9.792;2022-07-06T04:58:52;15.70;71.60
30244;DHT22;61465;53.652;9.792;2022-07-06T05:01:17;15.80;71.60
30244;DHT22;61465;53.652;9.792;2022-07-06T05:03:43;15.80;71.70
30244;DHT22;61465;53.652;9.792;2022-07-06T05:06:08;15.80;71.80
30244;DHT22;61465;53.652;9.792;2022-07-06T05:08:34;15.90;71.90
30244;DHT22;61465;53.652;9.792;2022-07-06T05:11:00;15.90;71.90
30244;DHT22;61465;53.652;9.792;2022-07-06T05:13:25;16.00;72.00
30244;DHT22;61465;53.652;9.792;2022-07-06T05:15:51;16.00;72.00
30244;DHT22;61465;53.652;9.792;2022-07-06T05:18:17;16.00;72.00
30244;DHT22;61465;53.652;9.792;2022-07-06T05:20:43;16.10;72.20
30244;DHT22;61465;53.652;9.792;2022-07-06T05:23:09;16.10;72.20
30244;DHT22;61465;53.652;9.792;2022-07-06T05:25:35;16.10;72.20
30244;DHT22;61465;53.652;9.792;2022-07-06T05:28:02;16.20;72.30
30244;DHT22;61465;53.652;9.792;2022-07-06T05:30:28;16.20;70.80
30244;DHT22;61465;53.652;9.792;2022-07-06T05:32:53;16.20;72.40
30244;DHT22;61465;53.652;9.792;2022-07-06T05:35:19;16.30;72.50
30244;DHT22;61465;53.652;9.792;2022-07-06T05:37:44;16.30;72.50
30244;DHT22;61465;53.652;9.792;2022-07-06T05:40:10;16.30;72.40
30244;DHT22;61465;53.652;9.792;2022-07-06T05:42:36;16.40;72.60
30244;DHT22;61465;53.652;9.792;2022-07-06T05:45:02;16.30;72.60
30244;DHT22;61465;53.652;9.792;2022-07-06T05:47:29;16.30;72.60
30244;DHT22;61465;53.652;9.792;2022-07-06T05:50:13;16.40;72.80
30244;DHT22;61465;53.652;9.792;2022-07-06T05:52:40;16.40;72.90
30244;DHT22;61465;53.652;9.792;2022-07-06T05:55:07;16.40;73.00
30244;DHT22;61465;53.652;9.792;2022-07-06T05:57:33;16.40;73.10
30244;DHT22;61465;53.652;9.792;2022-07-06T05:59:59;16.40;73.30
30244;DHT22;61465;53.652;9.792;2022-07-06T06:02:24;16.40;73.30
30244;DHT22;61465;53.652;9.792;2022-07-06T06:04:50;16.50;73.40
30244;DHT22;61465;53.652;9.792;2022-07-06T06:07:15;16.50;73.50
30244;DHT22;61465;53.652;9.792;2022-07-06T06:09:41;16.40;73.50
30244;DHT22;61465;53.652;9.792;2022-07-06T06:12:07;16.50;73.60
30244;DHT22;61465;53.652;9.792;2022-07-06T06:14:32;16.50;73.70
30244;DHT22;61465;53.652;9.792;2022-07-06T06:16:58;16.60;73.90
30244;DHT22;61465;53.652;9.792;2022-07-06T06:19:24;16.70;73.90
30244;DHT22;61465;53.652;9.792;2022-07-06T06:21:50;16.70;74.00
30244;DHT22;61465;53.652;9.792;2022-07-06T06:24:17;16.80;74.30
30244;DHT22;61465;53.652;9.792;2022-07-06T06:26:42;16.80;74.20
30244;DHT22;61465;53.652;9.792;2022-07-06T06:29:08;16.80;74.10
30244;DHT22;61465;53.652;9.792;2022-07-06T06:31:34;16.80;74.20
30244;DHT22;61465;53.652;9.792;2022-07-06T06:34:00;16.90;74.30
30244;DHT22;61465;53.652;9.792;2022-07-06T06:36:25;16.90;74.40
30244;DHT22;61465;53.652;9.792;2022-07-06T06:38:51;16.90;74.50
30244;DHT22;61465;53.652;9.792;2022-07-06T06:41:16;17.00;74.50
30244;DHT22;61465;53.652;9.792;2022-07-06T06:43:43;17.00;74.40
30244;DHT22;61465;53.652;9.792;2022-07-06T06:46:11;17.00;75.20
30244;DHT22;61465;53.652;9.792;2022-07-06T06:48:37;17.10;75.00
30244;DHT22;61465;53.652;9.792;2022-07-06T06:51:03;17.10;75.10
30244;DHT22;61465;53.652;9.792;2022-07-06T06:53:29;17.20;75.20
30244;DHT22;61465;53.652;9.792;2022-07-06T06:55:55;17.30;75.50
30244;DHT22;61465;53.652;9.792;2022-07-06T06:58:20;17.40;75.60
30244;DHT22;61465;53.652;9.792;2022-07-06T07:00:46;17.50;75.60
30244;DHT22;61465;53.652;9.792;2022-07-06T07:03:13;17.50;75.40
30244;DHT22;61465;53.652;9.792;2022-07-06T07:05:38;17.50;75.30
30244;DHT22;61465;53.652;9.792;2022-07-06T07:08:05;17.50;75.30
30244;DHT22;61465;53.652;9.792;2022-07-06T07:10:31;17.50;75.10
30244;DHT22;61465;53.652;9.792;2022-07-06T07:12:57;17.50;75.10
30244;DHT22;61465;53.652;9.792;2022-07-06T07:15:22;17.40;75.10
30244;DHT22;61465;53.652;9.792;2022-07-06T07:17:48;17.40;75.20
30244;DHT22;61465;53.652;9.792;2022-07-06T07:20:14;17.40;75.10
30244;DHT22;61465;53.652;9.792;2022-07-06T07:22:39;17.40;75.10
30244;DHT22;61465;53.652;9.792;2022-07-06T07:25:06;17.40;75.10
30244;DHT22;61465;53.652;9.792;2022-07-06T07:27:31;17.40;75.10
30244;DHT22;61465;53.652;9.792;2022-07-06T07:29:57;17.30;75.30
30244;DHT22;61465;53.652;9.792;2022-07-06T07:32:23;17.40;75.30
30244;DHT22;61465;53.652;9.792;2022-07-06T07:34:49;17.40;75.30
30244;DHT22;61465;53.652;9.792;2022-07-06T07:37:15;17.40;75.30
30244;DHT22;61465;53.652;9.792;2022-07-06T07:39:41;17.50;75.70
30244;DHT22;61465;53.652;9.792;2022-07-06T07:42:06;17.50;75.70
30244;DHT22;61465;53.652;9.792;2022-07-06T07:44:32;17.60;75.80
30244;DHT22;61465;53.652;9.792;2022-07-06T07:46:57;17.70;75.90
30244;DHT22;61465;53.652;9.792;2022-07-06T07:49:23;17.90;76.30
30244;DHT22;61465;53.652;9.792;2022-07-06T07:51:49;18.10;76.10
30244;DHT22;61465;53.652;9.792;2022-07-06T07:54:15;18.40;76.60
30244;DHT22;61465;53.652;9.792;2022-07-06T07:56:41;18.60;76.60
30244;DHT22;61465;53.652;9.792;2022-07-06T07:59:07;18.90;76.50
30244;DHT22;61465;53.652;9.792;2022-07-06T08:01:33;19.00;76.60
30244;DHT22;61465;53.652;9.792;2022-07-06T08:03:59;19.00;76.30
30244;DHT22;61465;53.652;9.792;2022-07-06T08:06:25;19.00;76.20
30244;DHT22;61465;53.652;9.792;2022-07-06T08:08:50;18.90;76.00
30244;DHT22;61465;53.652;9.792;2022-07-06T08:11:16;18.90;76.00
30244;DHT22;61465;53.652;9.792;2022-07-06T08:13:42;18.90;75.90
30244;DHT22;61465;53.652;9.792;2022-07-06T08:16:07;18.80;75.80
30244;DHT22;61465;53.652;9.792;2022-07-06T08:18:38;18.80;75.80
30244;DHT22;61465;53.652;9.792;2022-07-06T08:21:04;18.70;75.80
30244;DHT22;61465;53.652;9.792;2022-07-06T08:23:30;18.60;75.70
30244;DHT22;61465;53.652;9.792;2022-07-06T08:25:56;18.70;76.00
30244;DHT22;61465;53.652;9.792;2022-07-06T08:28:22;18.80;76.20
30244;DHT22;61465;53.652;9.792;2022-07-06T08:30:47;18.90;76.30
30244;DHT22;61465;53.652;9.792;2022-07-06T08:33:14;19.10;76.60
30244;DHT22;61465;53.652;9.792;2022-07-06T08:35:39;19.40;77.00
30244;DHT22;61465;53.652;9.792;2022-07-06T08:38:05;19.80;77.00
30244;DHT22;61465;53.652;9.792;2022-07-06T08:40:33;20.30;77.20
30244;DHT22;61465;53.652;9.792;2022-07-06T08:43:02;20.70;76.40
30244;DHT22;61465;53.652;9.792;2022-07-06T08:45:29;21.10;76.70
30244;DHT22;61465;53.652;9.792;2022-07-06T08:47:55;21.60;77.30
30244;DHT22;61465;53.652;9.792;2022-07-06T08:50:25;22.10;76.00
30244;DHT22;61465;53.652;9.792;2022-07-06T08:52:51;22.50;75.90
30244;DHT22;61465;53.652;9.792;2022-07-06T08:55:17;22.70;75.10
30244;DHT22;61465;53.652;9.792;2022-07-06T08:57:46;22.80;75.00
30244;DHT22;61465;53.652;9.792;2022-07-06T09:00:12;22.80;74.60
30244;DHT22;61465;53.652;9.792;2022-07-06T09:02:40;22.90;74.20
30244;DHT22;61465;53.652;9.792;2022-07-06T09:05:06;23.00;73.80
30244;DHT22;61465;53.652;9.792;2022-07-06T09:07:34;23.10;73.60
30244;DHT22;61465;53.652;9.792;2022-07-06T09:10:00;23.10;73.60
30244;DHT22;61465;53.652;9.792;2022-07-06T09:12:27;23.20;73.40
30244;DHT22;61465;53.652;9.792;2022-07-06T09:14:56;23.30;73.20
30244;DHT22;61465;53.652;9.792;2022-07-06T09:17:26;23.40;73.10
30244;DHT22;61465;53.652;9.792;2022-07-06T09:19:53;23.50;72.70
30244;DHT22;61465;53.652;9.792;2022-07-06T09:22:32;23.70;72.20
30244;DHT22;61465;53.652;9.792;2022-07-06T09:25:10;23.90;73.10
30244;DHT22;61465;53.652;9.792;2022-07-06T09:27:44;24.00;71.80
30244;DHT22;61465;53.652;9.792;2022-07-06T09:30:16;23.90;72.00
30244;DHT22;61465;53.652;9.792;2022-07-06T09:32:50;24.10;71.50
30244;DHT22;61465;53.652;9.792;2022-07-06T09:37:46;24.50;71.50
30244;DHT22;61465;53.652;9.792;2022-07-06T09:40:17;24.70;70.70
30244;DHT22;61465;53.652;9.792;2022-07-06T09:42:45;25.00;71.40
30244;DHT22;61465;53.652;9.792;2022-07-06T09:45:10;25.30;70.10
30244;DHT22;61465;53.652;9.792;2022-07-06T09:47:36;25.20;69.30
30244;DHT22;61465;53.652;9.792;2022-07-06T09:50:05;24.90;68.10
30244;DHT22;61465;53.652;9.792;2022-07-06T09:52:34;24.40;68.20
30244;DHT22;61465;53.652;9.792;2022-07-06T09:55:00;24.00;67.80
30244;DHT22;61465;53.652;9.792;2022-07-06T09:57:30;23.50;66.80
30244;DHT22;61465;53.652;9.792;2022-07-06T09:59:58;23.10;66.90
30244;DHT22;61465;53.652;9.792;2022-07-06T10:02:24;22.70;66.00
30244;DHT22;61465;53.652;9.792;2022-07-06T10:04:52;22.30;65.70
30244;DHT22;61465;53.652;9.792;2022-07-06T10:07:22;21.90;65.00
30244;DHT22;61465;53.652;9.792;2022-07-06T10:09:50;21.50;65.20
30244;DHT22;61465;53.652;9.792;2022-07-06T10:12:17;21.10;65.50
30244;DHT22;61465;53.652;9.792;2022-07-06T10:14:44;20.90;66.00
30244;DHT22;61465;53.652;9.792;2022-07-06T10:17:10;20.60;66.40
30244;DHT22;61465;53.652;9.792;2022-07-06T10:19:36;20.50;66.40
30244;DHT22;61465;53.652;9.792;2022-07-06T10:22:04;20.40;66.80
30244;DHT22;61465;53.652;9.792;2022-07-06T10:24:30;20.30;67.10
30244;DHT22;61465;53.652;9.792;2022-07-06T10:26:59;20.10;67.10
30244;DHT22;61465;53.652;9.792;2022-07-06T10:29:25;20.10;67.50
30244;DHT22;61465;53.652;9.792;2022-07-06T10:31:51;20.00;67.40
30244;DHT22;61465;53.652;9.792;2022-07-06T10:34:19;20.00;67.60
30244;DHT22;61465;53.652;9.792;2022-07-06T10:36:49;20.00;68.10
30244;DHT22;61465;53.652;9.792;2022-07-06T10:39:15;20.10;68.10
30244;DHT22;61465;53.652;9.792;2022-07-06T10:41:59;20.20;68.10
30244;DHT22;61465;53.652;9.792;2022-07-06T10:44:26;20.30;68.60
30244;DHT22;61465;53.652;9.792;2022-07-06T10:46:57;20.50;68.90
30244;DHT22;61465;53.652;9.792;2022-07-06T10:49:25;20.70;69.00
30244;DHT22;61465;53.652;9.792;2022-07-06T10:51:51;20.90;69.20
30244;DHT22;61465;53.652;9.792;2022-07-06T10:54:19;21.00;68.70
30244;DHT22;61465;53.652;9.792;2022-07-06T10:56:47;21.20;68.60
30244;DHT22;61465;53.652;9.792;2022-07-06T10:59:22;21.30;68.50
30244;DHT22;61465;53.652;9.792;2022-07-06T11:02:19;21.30;68.80
30244;DHT22;61465;53.652;9.792;2022-07-06T11:04:46;21.50;69.40
30244;DHT22;61465;53.652;9.792;2022-07-06T11:07:19;21.60;69.20
30244;DHT22;61465;53.652;9.792;2022-07-06T11:09:55;21.70;69.10
30244;DHT22;61465;53.652;9.792;2022-07-06T11:12:21;21.70;69.30
30244;DHT22;61465;53.652;9.792;2022-07-06T11:14:48;21.70;69.00
30244;DHT22;61465;53.652;9.792;2022-07-06T11:17:15;21.70;68.80
30244;DHT22;61465;53.652;9.792;2022-07-06T11:20:08;21.60;68.30
30244;DHT22;61465;53.652;9.792;2022-07-06T11:22:36;21.60;68.30
30244;DHT22;61465;53.652;9.792;2022-07-06T11:25:02;21.50;67.90
30244;DHT22;61465;53.652;9.792;2022-07-06T11:27:28;21.60;68.20
30244;DHT22;61465;53.652;9.792;2022-07-06T11:29:54;21.60;68.20
30244;DHT22;61465;53.652;9.792;2022-07-06T11:32:26;21.70;68.40
30244;DHT22;61465;53.652;9.792;2022-07-06T11:34:52;21.80;68.60
30244;DHT22;61465;53.652;9.792;2022-07-06T11:37:19;21.80;68.40
30244;DHT22;61465;53.652;9.792;2022-07-06T11:39:47;21.90;68.20
30244;DHT22;61465;53.652;9.792;2022-07-06T11:42:14;22.00;68.60
30244;DHT22;61465;53.652;9.792;2022-07-06T11:44:41;22.00;68.60
30244;DHT22;61465;53.652;9.792;2022-07-06T11:47:08;22.10;68.70
30244;DHT22;61465;53.652;9.792;2022-07-06T11:49:35;22.20;67.90
30244;DHT22;61465;53.652;9.792;2022-07-06T11:52:08;22.20;67.50
30244;DHT22;61465;53.652;9.792;2022-07-06T11:54:34;22.20;68.00
30244;DHT22;61465;53.652;9.792;2022-07-06T11:57:00;22.30;67.80
30244;DHT22;61465;53.652;9.792;2022-07-06T11:59:28;22.40;67.80
30244;DHT22;61465;53.652;9.792;2022-07-06T12:02:06;22.50;67.60
30244;DHT22;61465;53.652;9.792;2022-07-06T12:04:36;22.60;68.30
30244;DHT22;61465;53.652;9.792;2022-07-06T12:07:04;22.70;67.90
30244;DHT22;61465;53.652;9.792;2022-07-06T12:09:31;22.70;67.40
30244;DHT22;61465;53.652;9.792;2022-07-06T12:11:57;22.70;67.00
30244;DHT22;61465;53.652;9.792;2022-07-06T12:14:22;22.70;66.70
30244;DHT22;61465;53.652;9.792;2022-07-06T12:16:49;22.60;66.70
30244;DHT22;61465;53.652;9.792;2022-07-06T12:19:16;22.60;66.50
30244;DHT22;61465;53.652;9.792;2022-07-06T12:21:46;22.60;66.00
30244;DHT22;61465;53.652;9.792;2022-07-06T12:24:26;22.60;65.90
30244;DHT22;61465;53.652;9.792;2022-07-06T12:26:54;22.50;66.10
30244;DHT22;61465;53.652;9.792;2022-07-06T12:29:20;22.50;65.70
30244;DHT22;61465;53.652;9.792;2022-07-06T12:31:51;22.40;67.20
30244;DHT22;61465;53.652;9.792;2022-07-06T12:34:26;22.40;65.70
30244;DHT22;61465;53.652;9.792;2022-07-06T12:39:20;22.40;65.30
30244;DHT22;61465;53.652;9.792;2022-07-06T12:41:51;22.30;65.30
30244;DHT22;61465;53.652;9.792;2022-07-06T12:44:19;22.30;65.40
30244;DHT22;61465;53.652;9.792;2022-07-06T12:46:45;22.30;65.10
30244;DHT22;61465;53.652;9.792;2022-07-06T12:49:22;22.30;65.00
30244;DHT22;61465;53.652;9.792;2022-07-06T12:52:12;22.20;65.30
30244;DHT22;61465;53.652;9.792;2022-07-06T12:54:46;22.20;65.60
30244;DHT22;61465;53.652;9.792;2022-07-06T12:59:43;22.20;64.80
30244;DHT22;61465;53.652;9.792;2022-07-06T13:02:29;22.20;64.90
30244;DHT22;61465;53.652;9.792;2022-07-06T13:05:00;22.20;64.80
30244;DHT22;61465;53.652;9.792;2022-07-06T13:07:27;22.20;64.60
30244;DHT22;61465;53.652;9.792;2022-07-06T13:09:54;22.10;64.40
30244;DHT22;61465;53.652;9.792;2022-07-06T13:12:20;22.10;64.30
30244;DHT22;61465;53.652;9.792;2022-07-06T13:14:47;22.10;64.20
30244;DHT22;61465;53.652;9.792;2022-07-06T13:17:12;22.10;63.90
30244;DHT22;61465;53.652;9.792;2022-07-06T13:19:38;22.10;64.20
30244;DHT22;61465;53.652;9.792;2022-07-06T13:22:04;22.10;64.30
30244;DHT22;61465;53.652;9.792;2022-07-06T13:24:29;22.10;64.20
30244;DHT22;61465;53.652;9.792;2022-07-06T13:26:56;22.20;64.30
30244;DHT22;61465;53.652;9.792;2022-07-06T13:29:23;22.20;64.30
30244;DHT22;61465;53.652;9.792;2022-07-06T13:31:49;22.30;64.00
30244;DHT22;61465;53.652;9.792;2022-07-06T13:34:14;22.30;63.80
30244;DHT22;61465;53.652;9.792;2022-07-06T13:36:40;22.30;63.60
30244;DHT22;61465;53.652;9.792;2022-07-06T13:39:06;22.30;63.50
30244;DHT22;61465;53.652;9.792;2022-07-06T13:41:33;22.30;63.60
30244;DHT22;61465;53.652;9.792;2022-07-06T13:43:59;22.30;63.30
30244;DHT22;61465;53.652;9.792;2022-07-06T13:46:26;22.20;63.20
30244;DHT22;61465;53.652;9.792;2022-07-06T13:48:52;22.30;63.30
30244;DHT22;61465;53.652;9.792;2022-07-06T13:51:18;22.30;63.30
30244;DHT22;61465;53.652;9.792;2022-07-06T13:53:44;22.30;63.00
30244;DHT22;61465;53.652;9.792;2022-07-06T13:56:09;22.30;63.10
30244;DHT22;61465;53.652;9.792;2022-07-06T13:58:35;22.30;63.00
30244;DHT22;61465;53.652;9.792;2022-07-06T14:01:01;22.40;63.00
30244;DHT22;61465;53.652;9.792;2022-07-06T14:03:26;22.40;62.90
30244;DHT22;61465;53.652;9.792;2022-07-06T14:05:59;22.40;62.60
30244;DHT22;61465;53.652;9.792;2022-07-06T14:08:26;22.40;62.80
30244;DHT22;61465;53.652;9.792;2022-07-06T14:10:52;22.40;62.50
30244;DHT22;61465;53.652;9.792;2022-07-06T14:13:19;22.30;62.30
30244;DHT22;61465;53.652;9.792;2022-07-06T14:15:44;22.30;62.20
30244;DHT22;61465;53.652;9.792;2022-07-06T14:18:10;22.30;62.20
30244;DHT22;61465;53.652;9.792;2022-07-06T14:20:36;22.30;62.20
30244;DHT22;61465;53.652;9.792;2022-07-06T14:23:02;22.30;62.00
30244;DHT22;61465;53.652;9.792;2022-07-06T14:25:27;22.30;61.50
30244;DHT22;61465;53.652;9.792;2022-07-06T14:27:53;22.30;61.20
30244;DHT22;61465;53.652;9.792;2022-07-06T14:30:18;22.20;61.10
30244;DHT22;61465;53.652;9.792;2022-07-06T14:32:44;22.20;61.00
30244;DHT22;61465;53.652;9.792;2022-07-06T14:35:12;22.20;61.20
30244;DHT22;61465;53.652;9.792;2022-07-06T14:37:38;22.20;61.30
30244;DHT22;61465;53.652;9.792;2022-07-06T14:40:04;22.10;61.10
30244;DHT22;61465;53.652;9.792;2022-07-06T14:42:30;22.20;61.40
30244;DHT22;61465;53.652;9.792;2022-07-06T14:44:55;22.20;61.20
30244;DHT22;61465;53.652;9.792;2022-07-06T14:47:21;22.20;61.20
30244;DHT22;61465;53.652;9.792;2022-07-06T14:49:46;22.20;61.20
30244;DHT22;61465;53.652;9.792;2022-07-06T14:52:12;22.30;61.20
30244;DHT22;61465;53.652;9.792;2022-07-06T14:54:38;22.30;61.20
30244;DHT22;61465;53.652;9.792;2022-07-06T14:57:04;22.30;61.20
30244;DHT22;61465;53.652;9.792;2022-07-06T14:59:30;22.30;61.10
30244;DHT22;61465;53.652;9.792;2022-07-06T15:01:56;22.30;60.90
30244;DHT22;61465;53.652;9.792;2022-07-06T15:04:22;22.30;60.70
30244;DHT22;61465;53.652;9.792;2022-07-06T15:06:49;22.30;60.30
30244;DHT22;61465;53.652;9.792;2022-07-06T15:09:15;22.20;60.10
30244;DHT22;61465;53.652;9.792;2022-07-06T15:11:44;22.20;60.20
30244;DHT22;61465;53.652;9.792;2022-07-06T15:14:11;22.10;60.20
30244;DHT22;61465;53.652;9.792;2022-07-06T15:16:37;22.10;60.20
30244;DHT22;61465;53.652;9.792;2022-07-06T15:19:03;22.10;60.20
30244;DHT22;61465;53.652;9.792;2022-07-06T15:21:28;22.10;60.20
30244;DHT22;61465;53.652;9.792;2022-07-06T15:23:54;22.00;60.00
30244;DHT22;61465;53.652;9.792;2022-07-06T15:26:19;22.00;60.10
30244;DHT22;61465;53.652;9.792;2022-07-06T15:28:45;22.00;60.20
30244;DHT22;61465;53.652;9.792;2022-07-06T15:31:10;22.00;60.10
30244;DHT22;61465;53.652;9.792;2022-07-06T15:33:36;22.00;60.00
30244;DHT22;61465;53.652;9.792;2022-07-06T15:36:02;22.00;60.10